Time;durP1;ratioP1;P1;durP2;ratioP2;P2;SDS_P1;SDS_P2;PMS_P1;PMS_P2;Temp;Humidity;BMP_temperature;BMP_pressure;BME280_temperature;BME280_humidity;BME280_pressure;Samples;Min_cycle;Max_cycle;Signal;HPM_P1;HPM_P2
2023/06/24 00:02:45;;;;;;;;;;;;;;;24.48;45.43;96557.69;10509519;28;1882;-64
2023/06/24 00:07:45;;;;;;;;;;;;;;;24.48;45.74;96561.13;10495646;28;1955;-64
2023/06/24 00:12:45;;;;;;;;;;;;;;;24.48;45.59;96557.69;10507343;28;1892;-64
2023/06/24 00:17:46;;;;;;;;;;;;;;;24.48;45.54;96553.19;10508596;28;2392;-64
2023/06/24 00:22:48;;;;;;;;;;;;;;;24.49;45.60;96559.25;10508720;28;1925;-64
2023/06/24 00:27:48;;;;;;;;;;;;;;;24.49;45.79;96553.94;10521131;28;1953;-64
2023/06/24 00:32:49;;;;;;;;;;;;;;;24.49;45.51;96552.09;10507664;28;1950;-63
2023/06/24 00:37:49;;;;;;;;;;;;;;;24.49;45.47;96553.94;10506110;28;1980;-64
2023/06/24 00:42:49;;;;;;;;;;;;;;;24.49;45.70;96548.66;10501932;28;4434;-64
2023/06/24 00:47:49;;;;;;;;;;;;;;;24.49;45.39;96538.84;10503661;28;1942;-64
2023/06/24 00:52:50;;;;;;;;;;;;;;;24.49;45.51;96538.84;10497649;28;1949;-64
2023/06/24 00:57:51;;;;;;;;;;;;;;;24.50;45.54;96534.34;10498220;28;1928;-64
2023/06/24 01:02:51;;;;;;;;;;;;;;;24.49;45.44;96533.53;10487087;28;2036;-64
2023/06/24 01:07:55;;;;;;;;;;;;;;;24.50;45.40;96523.75;10484598;28;1942;-64
2023/06/24 01:12:55;;;;;;;;;;;;;;;24.50;45.39;96523.75;10503177;28;2450;-64
2023/06/24 01:18:10;;;;;;;;;;;;;;;24.49;45.41;96517.63;10507466;28;2013;-64
2023/06/24 01:23:14;;;;;;;;;;;;;;;24.50;45.37;96518.44;10485598;28;1934;-64
2023/06/24 01:28:33;;;;;;;;;;;;;;;24.49;45.31;96516.84;10499239;28;1926;-64
2023/06/24 01:33:36;;;;;;;;;;;;;;;24.50;45.40;96513.13;10510606;28;1965;-64
2023/06/24 01:38:40;;;;;;;;;;;;;;;24.49;45.32;96511.53;10482367;28;1929;-64
2023/06/24 01:43:40;;;;;;;;;;;;;;;24.50;45.14;96507.84;10503306;28;2059;-64
2023/06/24 01:48:41;;;;;;;;;;;;;;;24.50;45.27;96499.88;10490971;28;2079;-64
2023/06/24 01:53:45;;;;;;;;;;;;;;;24.50;45.20;96502.53;10486583;28;1989;-64
2023/06/24 01:58:46;;;;;;;;;;;;;;;24.50;45.34;96503.34;10487321;28;2004;-64
2023/06/24 02:03:46;;;;;;;;;;;;;;;24.51;45.43;96504.09;10505813;28;2156;-63
2023/06/24 02:08:47;;;;;;;;;;;;;;;24.50;45.17;96497.25;10505842;28;1961;-64
2023/06/24 02:13:47;;;;;;;;;;;;;;;24.47;45.26;96495.94;10501528;28;2527;-64
2023/06/24 02:18:48;;;;;;;;;;;;;;;24.50;45.23;96500.69;10517488;28;2232;-64
2023/06/24 02:23:48;;;;;;;;;;;;;;;24.49;45.15;96501.75;10505009;28;1984;-64
2023/06/24 02:28:49;;;;;;;;;;;;;;;24.49;45.35;96509.69;10507100;28;1891;-64
2023/06/24 02:33:49;;;;;;;;;;;;;;;24.49;45.13;96507.03;10489794;28;1921;-64
2023/06/24 02:38:49;;;;;;;;;;;;;;;24.49;45.14;96507.03;10505830;28;1910;-64
2023/06/24 02:43:49;;;;;;;;;;;;;;;24.49;45.17;96507.03;10506929;28;4514;-63
2023/06/24 02:48:50;;;;;;;;;;;;;;;24.50;45.16;96513.13;10512277;28;1886;-64
2023/06/24 02:53:50;;;;;;;;;;;;;;;24.50;44.98;96519.25;10500894;28;1918;-64
2023/06/24 02:58:52;;;;;;;;;;;;;;;24.51;44.93;96530.59;10516200;28;1945;-64
2023/06/24 03:03:55;;;;;;;;;;;;;;;24.51;45.00;96530.59;10512099;28;2043;-64
2023/06/24 03:08:55;;;;;;;;;;;;;;;24.50;45.02;96537.00;10510707;28;2228;-64
2023/06/24 03:13:56;;;;;;;;;;;;;;;24.51;44.88;96538.56;10503785;28;1989;-64
2023/06/24 03:18:57;;;;;;;;;;;;;;;24.50;45.03;96534.34;10512525;28;1910;-62
2023/06/24 03:23:58;;;;;;;;;;;;;;;24.50;45.19;96547.59;10501642;28;1922;-64
2023/06/24 03:28:59;;;;;;;;;;;;;;;24.50;44.83;96558.19;10491128;28;1890;-64
2023/06/24 03:33:59;;;;;;;;;;;;;;;24.51;44.89;96557.09;10508492;28;8934;-64
2023/06/24 03:38:59;;;;;;;;;;;;;;;24.49;45.03;96553.94;10511948;28;5392;-64
2023/06/24 03:44:00;;;;;;;;;;;;;;;24.50;44.85;96558.19;10513167;28;5469;-64
2023/06/24 03:49:00;;;;;;;;;;;;;;;24.50;45.00;96566.94;10520780;28;1907;-64
2023/06/24 03:54:01;;;;;;;;;;;;;;;24.50;44.99;96563.50;10511752;28;5316;-64
2023/06/24 03:59:02;;;;;;;;;;;;;;;24.50;44.88;96558.19;10508622;28;2009;-64
2023/06/24 04:04:02;;;;;;;;;;;;;;;24.50;44.89;96566.16;10518711;28;1870;-64
2023/06/24 04:09:03;;;;;;;;;;;;;;;24.50;44.91;96568.81;10507019;28;5307;-64
2023/06/24 04:14:06;;;;;;;;;;;;;;;24.50;44.92;96566.94;10504819;28;1955;-64
2023/06/24 04:19:06;;;;;;;;;;;;;;;24.51;44.76;96565.06;10502492;28;2017;-64
2023/06/24 04:24:07;;;;;;;;;;;;;;;24.50;44.78;96566.94;10504951;28;2044;-63
2023/06/24 04:29:07;;;;;;;;;;;;;;;24.50;45.04;96566.94;10503153;28;1992;-64
2023/06/24 04:34:07;;;;;;;;;;;;;;;24.49;44.90;96565.34;10511273;28;1894;-64
2023/06/24 04:39:08;;;;;;;;;;;;;;;24.50;44.95;96563.50;10503372;28;1490;-64
2023/06/24 04:44:08;;;;;;;;;;;;;;;24.49;44.83;96578.59;10513995;28;6748;-64
2023/06/24 04:49:08;;;;;;;;;;;;;;;24.50;44.83;96582.06;10500030;28;1970;-64
2023/06/24 04:54:08;;;;;;;;;;;;;;;24.49;44.89;96586.56;10497325;28;1960;-64
2023/06/24 04:59:09;;;;;;;;;;;;;;;24.49;44.90;96591.84;10488934;28;2090;-64
2023/06/24 05:04:09;;;;;;;;;;;;;;;24.50;44.86;96592.66;10504438;28;2014;-64
2023/06/24 05:09:13;;;;;;;;;;;;;;;24.50;44.64;96588.16;10507975;28;1902;-64
2023/06/24 05:14:13;;;;;;;;;;;;;;;24.50;44.69;96587.34;10511459;28;2012;-64
2023/06/24 05:19:13;;;;;;;;;;;;;;;24.48;44.86;96573.59;10509207;28;1799;-61
2023/06/24 05:24:14;;;;;;;;;;;;;;;24.50;44.83;96587.34;10508997;28;1878;-64
2023/06/24 05:29:14;;;;;;;;;;;;;;;24.50;44.88;96587.34;10514470;28;2131;-64
2023/06/24 05:34:14;;;;;;;;;;;;;;;24.51;44.70;96592.38;10509385;28;2100;-64
2023/06/24 05:39:15;;;;;;;;;;;;;;;24.51;44.74;96599.53;10510423;28;1886;-64
2023/06/24 05:44:17;;;;;;;;;;;;;;;24.51;44.67;96594.22;10509549;28;5135;-64
2023/06/24 05:49:18;;;;;;;;;;;;;;;24.51;44.86;96602.16;10507004;28;2037;-64
2023/06/24 05:54:18;;;;;;;;;;;;;;;24.50;44.91;96597.94;10501878;28;1982;-64
2023/06/24 05:59:18;;;;;;;;;;;;;;;24.52;44.91;96611.72;10505669;28;2096;-64
2023/06/24 06:04:18;;;;;;;;;;;;;;;24.51;44.86;96612.78;10499436;28;2032;-64
2023/06/24 06:09:19;;;;;;;;;;;;;;;24.51;44.91;96616.22;10507474;28;2137;-64
2023/06/24 06:14:19;;;;;;;;;;;;;;;24.50;45.02;96612.00;10495393;28;2028;-64
2023/06/24 06:19:20;;;;;;;;;;;;;;;24.51;44.89;96613.56;10500839;28;2097;-63
2023/06/24 06:24:20;;;;;;;;;;;;;;;24.50;44.71;96604.06;10509859;28;1875;-63
2023/06/24 06:29:20;;;;;;;;;;;;;;;24.52;44.54;96607.22;10493027;28;2073;-64
2023/06/24 06:34:20;;;;;;;;;;;;;;;24.52;44.76;96609.88;10510175;28;2715;-64
2023/06/24 06:39:21;;;;;;;;;;;;;;;24.51;44.83;96605.63;10512520;28;1933;-64
2023/06/24 06:44:21;;;;;;;;;;;;;;;24.51;44.65;96613.56;10506953;28;4924;-64
2023/06/24 06:49:22;;;;;;;;;;;;;;;24.51;44.84;96613.56;10518199;28;1885;-64
2023/06/24 06:54:22;;;;;;;;;;;;;;;24.51;44.72;96610.91;10513242;28;1989;-64
2023/06/24 06:59:22;;;;;;;;;;;;;;;24.52;44.77;96606.41;10513209;28;1997;-64
2023/06/24 07:04:22;;;;;;;;;;;;;;;24.51;44.72;96608.28;10511679;28;1914;-63
2023/06/24 07:09:23;;;;;;;;;;;;;;;24.52;44.75;96606.41;10505923;28;2024;-63
2023/06/24 07:14:23;;;;;;;;;;;;;;;24.53;44.69;96605.34;10513668;28;1977;-64
2023/06/24 07:19:23;;;;;;;;;;;;;;;24.53;44.73;96603.47;10513495;28;2033;-64
2023/06/24 07:24:24;;;;;;;;;;;;;;;24.55;44.87;96608.50;10519933;28;2004;-64
2023/06/24 07:29:24;;;;;;;;;;;;;;;24.56;44.92;96607.44;10510774;28;1927;-64
2023/06/24 07:34:24;;;;;;;;;;;;;;;24.55;44.96;96601.34;10505892;28;2012;-63
2023/06/24 07:39:24;;;;;;;;;;;;;;;24.55;44.87;96597.88;10509937;28;1887;-63
2023/06/24 07:44:25;;;;;;;;;;;;;;;24.55;44.90;96604.00;10501699;28;5043;-63
2023/06/24 07:49:25;;;;;;;;;;;;;;;24.55;44.89;96605.84;10513148;28;1970;-63
2023/06/24 07:54:25;;;;;;;;;;;;;;;24.56;44.53;96610.09;10511414;28;2021;-63
2023/06/24 07:59:26;;;;;;;;;;;;;;;24.54;44.72;96610.38;10510153;28;1997;-63
2023/06/24 08:04:26;;;;;;;;;;;;;;;24.56;44.69;96620.69;10520035;28;1886;-63
2023/06/24 08:09:26;;;;;;;;;;;;;;;24.55;44.58;96617.25;10490941;28;1963;-63
2023/06/24 08:14:26;;;;;;;;;;;;;;;24.55;44.66;96616.44;10513985;28;2236;-63
2023/06/24 08:19:27;;;;;;;;;;;;;;;24.56;44.44;96618.03;10503422;28;2053;-63
2023/06/24 08:24:27;;;;;;;;;;;;;;;24.55;44.48;96616.44;10511183;28;2033;-63
2023/06/24 08:29:27;;;;;;;;;;;;;;;24.54;44.47;96610.38;10498310;28;2346;-63
2023/06/24 08:34:28;;;;;;;;;;;;;;;24.55;44.39;96608.50;10500925;28;1948;-63
2023/06/24 08:39:28;;;;;;;;;;;;;;;24.55;44.55;96603.19;10506256;28;1922;-64
2023/06/24 08:44:28;;;;;;;;;;;;;;;24.55;44.69;96597.88;10507717;28;4909;-64
2023/06/24 08:49:29;;;;;;;;;;;;;;;24.54;44.35;96609.56;10502943;28;2003;-63
2023/06/24 08:54:30;;;;;;;;;;;;;;;24.55;44.29;96603.19;10504264;28;1934;-63
2023/06/24 08:59:33;;;;;;;;;;;;;;;24.55;44.44;96598.69;10508090;28;1875;-64
2023/06/24 09:04:33;;;;;;;;;;;;;;;24.55;44.28;96596.03;10503507;28;1896;-64
2023/06/24 09:09:41;;;;;;;;;;;;;;;24.56;44.31;96597.63;10506023;28;1954;-63
2023/06/24 09:14:42;;;;;;;;;;;;;;;24.56;44.33;96604.78;10507261;28;1966;-64
2023/06/24 09:19:42;;;;;;;;;;;;;;;24.54;44.09;96601.63;10478758;28;1923;-64
2023/06/24 09:24:46;;;;;;;;;;;;;;;24.55;43.99;96604.00;10503713;28;2686;-64
2023/06/24 09:29:47;;;;;;;;;;;;;;;24.54;44.24;96589.16;10495506;28;1960;-63
2023/06/24 09:34:48;;;;;;;;;;;;;;;24.55;44.33;96585.44;10503899;28;1999;-63
2023/06/24 09:39:48;;;;;;;;;;;;;;;24.56;44.12;96591.53;10521937;28;1914;-63
2023/06/24 09:44:52;;;;;;;;;;;;;;;24.55;44.11;96588.09;10505095;28;4976;-63
2023/06/24 09:49:53;;;;;;;;;;;;;;;24.53;43.88;96592.88;10510906;28;1948;-63
2023/06/24 09:54:53;;;;;;;;;;;;;;;24.53;43.88;96576.97;10510378;28;1950;-63
2023/06/24 09:59:54;;;;;;;;;;;;;;;24.55;43.91;96582.00;10507953;28;2069;-63
2023/06/24 10:04:54;;;;;;;;;;;;;;;24.53;43.85;96576.97;10493498;28;1962;-64
2023/06/24 10:09:54;;;;;;;;;;;;;;;24.53;43.70;96574.31;10500125;28;1935;-62
2023/06/24 10:14:55;;;;;;;;;;;;;;;24.52;43.81;96571.97;10506163;28;1970;-63
2023/06/24 10:19:55;;;;;;;;;;;;;;;24.53;43.42;96561.06;10515963;28;1931;-64
2023/06/24 10:24:57;;;;;;;;;;;;;;;24.53;43.66;96557.63;10516211;28;1894;-63
2023/06/24 10:29:58;;;;;;;;;;;;;;;24.53;43.75;96549.66;10500484;28;2041;-63
2023/06/24 10:34:58;;;;;;;;;;;;;;;24.55;43.61;96552.84;10490083;28;2013;-63
2023/06/24 10:39:59;;;;;;;;;;;;;;;24.52;43.08;96538.31;10514401;28;1992;-63
2023/06/24 10:45:00;;;;;;;;;;;;;;;24.53;43.42;96529.25;10512660;28;4984;-63
2023/06/24 10:50:00;;;;;;;;;;;;;;;24.54;43.35;96524.75;10526918;28;1951;-63
2023/06/24 10:55:01;;;;;;;;;;;;;;;24.53;43.50;96518.66;10512552;28;1949;-63
2023/06/24 11:00:01;;;;;;;;;;;;;;;24.51;43.06;96515.50;10514847;28;1902;-64
2023/06/24 11:05:02;;;;;;;;;;;;;;;24.50;42.59;96513.13;10505252;28;1854;-64
2023/06/24 11:10:06;;;;;;;;;;;;;;;24.49;42.70;96517.63;10514753;28;1988;-63
2023/06/24 11:15:07;;;;;;;;;;;;;;;24.49;42.74;96500.94;10513586;28;1961;-63
2023/06/24 11:20:10;;;;;;;;;;;;;;;24.50;43.06;96491.94;10511527;28;2426;-63
2023/06/24 11:25:14;;;;;;;;;;;;;;;24.50;42.58;96482.13;10505947;28;1989;-63
2023/06/24 11:30:15;;;;;;;;;;;;;;;24.49;42.12;96482.38;10502966;28;1894;-63
2023/06/24 11:35:16;;;;;;;;;;;;;;;24.47;42.13;96466.78;10494577;28;1960;-63
2023/06/24 11:40:18;;;;;;;;;;;;;;;24.47;42.16;96469.44;10519358;28;2050;-63
2023/06/24 11:45:21;;;;;;;;;;;;;;;24.48;42.11;96456.97;10516764;28;2119;-64
2023/06/24 11:50:28;;;;;;;;;;;;;;;24.47;42.23;96458.81;10495620;28;1871;-64
2023/06/24 11:55:28;;;;;;;;;;;;;;;24.48;42.28;96457.78;10513076;28;2005;-63
2023/06/24 12:00:32;;;;;;;;;;;;;;;24.48;41.88;96449.03;10495378;28;1973;-64
2023/06/24 12:05:33;;;;;;;;;;;;;;;24.47;41.92;96444.78;10518255;28;1929;-64
2023/06/24 12:10:33;;;;;;;;;;;;;;;24.46;41.79;96441.31;10510866;28;1888;-64
2023/06/24 12:15:34;;;;;;;;;;;;;;;24.46;41.91;96435.25;10510832;28;2405;-64
2023/06/24 12:20:37;;;;;;;;;;;;;;;24.46;41.77;96432.63;10514412;28;1925;-64
2023/06/24 12:25:37;;;;;;;;;;;;;;;24.46;41.93;96422.00;10517051;28;1867;-64
2023/06/24 12:30:37;;;;;;;;;;;;;;;24.49;42.35;96416.13;10504839;28;1910;-63
2023/06/24 12:35:37;;;;;;;;;;;;;;;24.49;42.58;96414.28;10505040;28;1961;-63
2023/06/24 12:40:38;;;;;;;;;;;;;;;24.52;42.74;96404.97;10515653;28;1923;-64
2023/06/24 12:45:38;;;;;;;;;;;;;;;24.52;42.34;96404.97;10511093;28;4933;-64
2023/06/24 12:50:38;;;;;;;;;;;;;;;24.53;42.33;96403.88;10507116;28;2108;-64
2023/06/24 12:55:38;;;;;;;;;;;;;;;24.51;42.22;96404.19;10505738;28;1922;-64
2023/06/24 13:00:39;;;;;;;;;;;;;;;24.52;42.34;96395.19;10512104;28;1987;-64
2023/06/24 13:05:39;;;;;;;;;;;;;;;24.52;42.26;96383.78;10505172;28;2017;-64
2023/06/24 13:10:40;;;;;;;;;;;;;;;24.54;42.88;96381.63;10508009;28;2389;-64
2023/06/24 13:15:40;;;;;;;;;;;;;;;24.55;42.75;96377.88;10505095;28;1882;-63
2023/06/24 13:20:40;;;;;;;;;;;;;;;24.57;42.92;96381.84;10509155;28;2006;-64
2023/06/24 13:25:41;;;;;;;;;;;;;;;24.54;42.41;96371.81;10504236;28;1929;-64
2023/06/24 13:30:41;;;;;;;;;;;;;;;24.55;41.98;96373.38;10498625;28;2009;-64
2023/06/24 13:35:41;;;;;;;;;;;;;;;24.55;42.52;96372.59;10510416;28;1914;-64
2023/06/24 13:40:42;;;;;;;;;;;;;;;24.55;42.43;96375.25;10506219;28;2005;-64
2023/06/24 13:45:42;;;;;;;;;;;;;;;24.56;42.68;96379.50;10511582;28;4718;-64
2023/06/24 13:50:42;;;;;;;;;;;;;;;24.56;42.67;96368.88;10507792;28;1882;-64
2023/06/24 13:55:42;;;;;;;;;;;;;;;24.58;42.65;96366.75;10504032;28;1926;-63
2023/06/24 14:00:43;;;;;;;;;;;;;;;24.57;42.62;96359.84;10502859;28;1965;-64
2023/06/24 14:05:43;;;;;;;;;;;;;;;24.56;42.56;96359.06;10511602;28;2284;-64
2023/06/24 14:10:43;;;;;;;;;;;;;;;24.58;42.85;96348.19;10506990;28;2015;-64
2023/06/24 14:15:44;;;;;;;;;;;;;;;24.58;42.67;96340.22;10509191;28;1979;-64
2023/06/24 14:20:44;;;;;;;;;;;;;;;24.57;42.31;96350.03;10504844;28;1906;-64
2023/06/24 14:25:44;;;;;;;;;;;;;;;24.56;41.85;96343.19;10524700;28;1962;-64
2023/06/24 14:30:45;;;;;;;;;;;;;;;24.55;41.84;96340.78;10505660;28;1930;-64
2023/06/24 14:35:46;;;;;;;;;;;;;;;24.55;42.17;96340.78;10512229;28;2009;-64
2023/06/24 14:40:46;;;;;;;;;;;;;;;24.55;41.81;96341.59;10505786;28;1904;-63
2023/06/24 14:45:46;;;;;;;;;;;;;;;24.54;41.93;96334.72;10508339;28;4712;-64
2023/06/24 14:50:46;;;;;;;;;;;;;;;24.56;42.21;96331.78;10510670;28;2108;-64
2023/06/24 14:55:47;;;;;;;;;;;;;;;24.56;42.08;96321.19;10499712;28;2003;-63
2023/06/24 15:00:47;;;;;;;;;;;;;;;24.54;42.04;96332.06;10503230;28;2169;-63
2023/06/24 15:05:47;;;;;;;;;;;;;;;24.54;41.48;96323.31;10512654;28;1926;-60
2023/06/24 15:10:47;;;;;;;;;;;;;;;24.53;41.54;96317.22;10520048;28;1922;-64
2023/06/24 15:15:49;;;;;;;;;;;;;;;24.54;41.88;96325.97;10510314;28;2025;-63
2023/06/24 15:20:49;;;;;;;;;;;;;;;24.54;41.93;96318.81;10521712;28;1894;-63
2023/06/24 15:25:51;;;;;;;;;;;;;;;24.54;41.93;96312.72;10494864;28;1925;-64
2023/06/24 15:30:52;;;;;;;;;;;;;;;24.54;41.94;96315.38;10516762;28;1559;-64
2023/06/24 15:35:52;;;;;;;;;;;;;;;24.54;41.84;96308.22;10518641;28;1952;-63
2023/06/24 15:40:52;;;;;;;;;;;;;;;24.54;41.48;96294.16;10520393;28;1736;-64
2023/06/24 15:45:53;;;;;;;;;;;;;;;24.54;41.78;96294.97;10506078;28;1879;-64
2023/06/24 15:50:53;;;;;;;;;;;;;;;24.55;41.67;96298.38;10509777;28;1894;-64
2023/06/24 15:55:53;;;;;;;;;;;;;;;24.53;41.63;96288.06;10509027;28;1941;-64
2023/06/24 16:00:54;;;;;;;;;;;;;;;24.54;41.67;96281.72;10507046;28;2312;-63
2023/06/24 16:05:54;;;;;;;;;;;;;;;24.55;41.71;96291.22;10498538;28;1926;-64
2023/06/24 16:10:54;;;;;;;;;;;;;;;24.55;41.76;96287.78;10512126;28;2022;-63
2023/06/24 16:15:54;;;;;;;;;;;;;;;24.55;41.66;96285.91;10508578;28;1922;-63
2023/06/24 16:20:55;;;;;;;;;;;;;;;24.56;41.92;96270.81;10509800;28;2013;-63
2023/06/24 16:25:55;;;;;;;;;;;;;;;24.58;42.27;96276.63;10505068;28;1937;-63
2023/06/24 16:30:55;;;;;;;;;;;;;;;24.58;42.22;96277.41;10508241;28;1997;-63
2023/06/24 16:35:56;;;;;;;;;;;;;;;24.57;41.97;96275.81;10503762;28;2003;-63
2023/06/24 16:40:56;;;;;;;;;;;;;;;24.57;41.92;96275.03;10508591;28;1890;-63
2023/06/24 16:45:56;;;;;;;;;;;;;;;24.57;42.01;96267.06;10515390;28;4966;-63
2023/06/24 16:50:56;;;;;;;;;;;;;;;24.57;41.38;96269.72;10506836;28;1936;-63
2023/06/24 16:55:57;;;;;;;;;;;;;;;24.55;41.31;96270.03;10502872;28;1890;-63
2023/06/24 17:00:57;;;;;;;;;;;;;;;24.56;41.29;96265.50;10503292;28;1969;-63
2023/06/24 17:05:57;;;;;;;;;;;;;;;24.55;41.66;96261.28;10509905;28;1889;-63
2023/06/24 17:10:57;;;;;;;;;;;;;;;24.54;41.79;96257.84;10500861;28;1878;-63
2023/06/24 17:15:58;;;;;;;;;;;;;;;24.56;41.75;96257.56;10500734;28;1949;-60
2023/06/24 17:20:58;;;;;;;;;;;;;;;24.56;41.85;96255.72;10487963;28;1960;-63
2023/06/24 17:25:58;;;;;;;;;;;;;;;24.56;41.85;96252.25;10501113;28;2029;-63
2023/06/24 17:30:59;;;;;;;;;;;;;;;24.57;41.57;96253.81;10507324;28;1966;-63
2023/06/24 17:35:59;;;;;;;;;;;;;;;24.56;41.97;96250.41;10509411;28;2260;-63
2023/06/24 17:41:01;;;;;;;;;;;;;;;24.59;42.08;96256.97;10495022;28;2025;-63
2023/06/24 17:46:01;;;;;;;;;;;;;;;24.57;41.97;96244.00;10504112;28;4906;-64
2023/06/24 17:51:02;;;;;;;;;;;;;;;24.58;42.12;96242.16;10513814;28;2368;-63
2023/06/24 17:56:03;;;;;;;;;;;;;;;24.59;41.90;96249.03;10505652;28;2014;-63
2023/06/24 18:01:03;;;;;;;;;;;;;;;24.58;41.68;96240.31;10513125;28;2096;-64
2023/06/24 18:06:03;;;;;;;;;;;;;;;24.58;41.58;96234.22;10517327;28;1909;-63
2023/06/24 18:11:03;;;;;;;;;;;;;;;24.57;41.75;96230.75;10506576;28;1913;-63
2023/06/24 18:16:04;;;;;;;;;;;;;;;24.58;41.65;96228.91;10507071;28;1926;-63
2023/06/24 18:21:04;;;;;;;;;;;;;;;24.57;42.23;96228.09;10501619;28;1907;-63
2023/06/24 18:26:04;;;;;;;;;;;;;;;24.58;42.06;96234.22;10510119;28;1871;-63
2023/06/24 18:31:05;;;;;;;;;;;;;;;24.59;42.09;96222.50;10513917;28;1969;-63
2023/06/24 18:36:05;;;;;;;;;;;;;;;24.59;42.16;96225.16;10508372;28;1903;-63
2023/06/24 18:41:05;;;;;;;;;;;;;;;24.59;42.31;96225.16;10511888;28;4641;-63
2023/06/24 18:46:05;;;;;;;;;;;;;;;24.59;42.15;96225.16;10518183;28;2386;-63
2023/06/24 18:51:06;;;;;;;;;;;;;;;24.60;42.33;96226.75;10501968;28;1909;-63
2023/06/24 18:56:06;;;;;;;;;;;;;;;24.61;42.30;96223.00;10510246;28;1890;-63
2023/06/24 19:01:06;;;;;;;;;;;;;;;24.60;42.05;96224.91;10521301;28;1835;-63
2023/06/24 19:06:07;;;;;;;;;;;;;;;24.61;42.10;96225.66;10516011;28;1934;-63
2023/06/24 19:11:07;;;;;;;;;;;;;;;24.62;42.20;96229.91;10510539;28;1981;-63
2023/06/24 19:16:07;;;;;;;;;;;;;;;24.63;42.27;96226.16;10517549;28;1914;-63
2023/06/24 19:21:08;;;;;;;;;;;;;;;24.62;42.21;96219.31;10518232;28;1886;-63
2023/06/24 19:26:08;;;;;;;;;;;;;;;24.62;42.24;96221.94;10515664;28;1772;-63
2023/06/24 19:31:08;;;;;;;;;;;;;;;24.62;42.24;96222.75;10516483;28;1968;-63
2023/06/24 19:36:08;;;;;;;;;;;;;;;24.64;42.31;96233.84;10516349;28;1855;-63
2023/06/24 19:41:09;;;;;;;;;;;;;;;24.65;42.30;96239.91;10515020;28;4657;-63
2023/06/24 19:46:09;;;;;;;;;;;;;;;24.66;42.12;96236.22;10516586;28;2532;-63
2023/06/24 19:51:09;;;;;;;;;;;;;;;24.65;42.21;96229.31;10515543;28;1961;-63
2023/06/24 19:56:09;;;;;;;;;;;;;;;24.66;42.12;96233.56;10508861;28;1863;-63
2023/06/24 20:01:10;;;;;;;;;;;;;;;24.65;42.20;96238.06;10509784;28;1934;-63
2023/06/24 20:06:10;;;;;;;;;;;;;;;24.65;42.17;96229.31;10495115;28;1882;-63
2023/06/24 20:11:10;;;;;;;;;;;;;;;24.67;41.93;96240.41;10509099;28;2216;-63
2023/06/24 20:16:11;;;;;;;;;;;;;;;24.67;42.28;96232.47;10512750;28;1885;-63
2023/06/24 20:21:13;;;;;;;;;;;;;;;24.67;42.21;96229.81;10516000;28;1910;-63
2023/06/24 20:26:13;;;;;;;;;;;;;;;24.66;42.34;96230.91;10513046;28;1890;-63
2023/06/24 20:31:14;;;;;;;;;;;;;;;24.67;42.39;96232.47;10509024;28;2096;-63
2023/06/24 20:36:14;;;;;;;;;;;;;;;24.68;42.49;96228.75;10515008;28;1905;-63
2023/06/24 20:41:27;;;;;;;;;;;;;;;24.68;42.38;96234.06;10520731;28;4685;-63
2023/06/24 20:46:27;;;;;;;;;;;;;;;24.69;42.47;96230.34;10509100;28;1872;-63
2023/06/24 20:51:29;;;;;;;;;;;;;;;24.69;42.44;96230.34;10491642;28;1981;-63
2023/06/24 20:56:29;;;;;;;;;;;;;;;24.68;42.59;96221.59;10508954;28;2016;-63
2023/06/24 21:01:29;;;;;;;;;;;;;;;24.69;42.60;96223.16;10510857;28;2030;-64
2023/06/24 21:06:30;;;;;;;;;;;;;;;24.68;42.52;96218.94;10504097;28;2010;-63
2023/06/24 21:11:30;;;;;;;;;;;;;;;24.70;42.51;96216.00;10508746;28;1975;-64
2023/06/24 21:16:30;;;;;;;;;;;;;;;24.69;42.56;96214.44;10511069;28;1914;-63
2023/06/24 21:21:30;;;;;;;;;;;;;;;24.68;42.59;96221.59;10503266;28;2284;-64
2023/06/24 21:26:31;;;;;;;;;;;;;;;24.71;42.71;96220.25;10505887;28;2020;-64
2023/06/24 21:31:31;;;;;;;;;;;;;;;24.71;42.85;96225.53;10512052;28;1948;-63
2023/06/24 21:36:31;;;;;;;;;;;;;;;24.69;42.54;96225.81;10513412;28;2440;-64
2023/06/24 21:41:32;;;;;;;;;;;;;;;24.69;42.85;96219.75;10513788;28;4630;-64
2023/06/24 21:46:32;;;;;;;;;;;;;;;24.70;42.64;96221.31;10517907;28;2096;-63
2023/06/24 21:51:33;;;;;;;;;;;;;;;24.70;42.94;96222.09;10506389;28;2040;-64
2023/06/24 21:56:33;;;;;;;;;;;;;;;24.69;42.54;96215.19;10519426;28;1858;-64
2023/06/24 22:01:33;;;;;;;;;;;;;;;24.69;42.56;96217.09;10487195;28;1959;-64
2023/06/24 22:06:34;;;;;;;;;;;;;;;24.70;42.60;96210.69;10525205;28;1851;-64
2023/06/24 22:11:34;;;;;;;;;;;;;;;24.69;42.62;96209.13;10514862;28;2017;-64
2023/06/24 22:16:34;;;;;;;;;;;;;;;24.69;42.49;96201.94;10498300;28;1990;-63
2023/06/24 22:21:34;;;;;;;;;;;;;;;24.71;42.59;96205.09;10520135;28;1913;-64
2023/06/24 22:26:35;;;;;;;;;;;;;;;24.69;42.39;96198.53;10514109;28;1917;-64
2023/06/24 22:31:35;;;;;;;;;;;;;;;24.68;42.65;96192.44;10525745;28;1913;-64
2023/06/24 22:36:35;;;;;;;;;;;;;;;24.69;42.52;96196.66;10509447;28;1971;-64
2023/06/24 22:41:35;;;;;;;;;;;;;;;24.69;42.62;96194.00;10508068;28;4712;-64
2023/06/24 22:46:36;;;;;;;;;;;;;;;24.69;42.58;96179.97;10518271;28;2128;-64
2023/06/24 22:51:36;;;;;;;;;;;;;;;24.69;42.79;96190.56;10519341;28;1903;-64
2023/06/24 22:56:36;;;;;;;;;;;;;;;24.69;42.55;96177.31;10518474;28;1928;-64
2023/06/24 23:01:36;;;;;;;;;;;;;;;24.69;42.39;96172.03;10519320;28;1929;-64
2023/06/24 23:06:37;;;;;;;;;;;;;;;24.69;42.38;96177.31;10514173;28;2092;-64
2023/06/24 23:11:37;;;;;;;;;;;;;;;24.68;42.61;96187.13;10491355;28;1957;-64
2023/06/24 23:16:37;;;;;;;;;;;;;;;24.69;42.34;96172.03;10494000;28;1952;-64
2023/06/24 23:21:38;;;;;;;;;;;;;;;24.68;42.32;96162.47;10517180;28;1893;-64
2023/06/24 23:26:39;;;;;;;;;;;;;;;24.68;42.38;96157.97;10513643;28;1931;-64
2023/06/24 23:31:43;;;;;;;;;;;;;;;24.70;42.42;96162.97;10511124;28;2425;-64
2023/06/24 23:36:43;;;;;;;;;;;;;;;24.68;42.54;96157.19;10509126;28;2005;-64
2023/06/24 23:41:44;;;;;;;;;;;;;;;24.69;42.31;96153.47;10515352;28;1985;-64
2023/06/24 23:46:44;;;;;;;;;;;;;;;24.69;42.48;96150.81;10514132;28;1854;-64
2023/06/24 23:51:44;;;;;;;;;;;;;;;24.69;42.59;96150.81;10515087;28;1987;-64
2023/06/24 23:56:44;;;;;;;;;;;;;;;24.69;42.22;96142.84;10514613;28;1918;-64
